Details From LGAV - Athens Intl Airport Elefterios Venizel
To LCLK - Larnaca
Flight Number -
Tags Generated
Created
Modified
Stats Distance 503 nm / 932 km
Max Altitude 0 ft / 0 m
Waypoints 4
Social Downloads 9
Likes 0
Share VATSIM

Download

Looking for another format? Having issues loading an existing format? Contact us
Advertisement - Login to hide

Notes

Generated

Route

LGAV DAL10 SOLAB LCLK

ID Type Via Altitude Latitude Longitude Leg Dist Tot Dist Heading (true) Name
O LGAV APT - 0 ft / 0 m 37.92101˚ 23.91920˚ - 0 nm - -
DAL10 FIX - 0 ft / 0 m 36.52750˚ 28.73187˚ 244 nm 244 nm 109° / 111° -
SOLAB FIX - 0 ft / 0 m 34.96167˚ 33.32167˚ 242 nm 487 nm 111° / 114° -
O LCLK APT - 0 ft / 0 m 34.86568˚ 33.61326˚ 15 nm 502 nm 112° / 112° -

Altitude Profile

Advertisement - Login to hide

Weather


0- 5 10 15 20 25 30 35+ Temperature / ° C

Clouds and Precipitation
Forecast for 2018-05-22 00:00 UTC. Updated 3 hours ago

Ground ~20,000 ft ~40,000 ft Winds

LGAV

Details ICAO LGAV (ATH)
Name Athens Intl Airport Elefterios Venizel
Region Greece
Timezone Europe/Athens (UTC+3.0)
Stats Elevation 308 ft / 94 m (AMSL)
Location 37.936357° 23.944470°
Runways 2
Magnetic Variation 4.526° E

METAR

LGAV 220150Z 03006KT 9999 FEW030 19/10 Q1013 NOSIG

Decode

TAF

TAF TAF LGAV 212300Z 2200/2224 02016KT 9999 FEW030 TEMPO 2201/2207 02018G30KT

Decode

Departure Runways

ID Width Length Bearing (true) Bearing (mag) Surface Threshold Offset Overrun Length
03L 148 ft / 45 m 12,474 ft / 3,802 m 36.51° 31.98° Asphalt 984 ft / 300 m 393 ft / 120 m
03R 148 ft / 45 m 13,131 ft / 4,002 m 36.52° 31.99° Asphalt 984 ft / 300 m 393 ft / 120 m
21L 148 ft / 45 m 13,131 ft / 4,002 m 216.54° 212.01° Asphalt 984 ft / 300 m 393 ft / 120 m
21R 148 ft / 45 m 12,474 ft / 3,802 m 216.53° 212.00° Asphalt 984 ft / 300 m 393 ft / 120 m

LCLK

Details ICAO LCLK (LCA)
Name Larnaca
Region Cyprus
Timezone Asia/Nicosia (UTC+3.0)
Stats Elevation 8 ft / 2 m (AMSL)
Location 34.875115° 33.624832°
Runways 1
Magnetic Variation 5.028° E

METAR

LCLK 220200Z 00000KT CAVOK 23/23 Q1011 NOSIG

Decode

TAF

TAF LCLK 212330Z 2200/2224 36009KT CAVOK BECMG 2208/2212 20012KT BECMG 2215/2219 32006KT

Decode

Destination Runways

ID Width Length Bearing (true) Bearing (mag) Surface Threshold Offset Overrun Length
04 148 ft / 45 m 9,771 ft / 2,978 m 45.15° 40.12° Asphalt 0 ft / 0 m 210 ft / 64 m
22 148 ft / 45 m 9,771 ft / 2,978 m 225.17° 220.14° Asphalt 575 ft / 175 m 0 ft / 0 m

Approach Navaids

Runway Type Ident Frequency Range Bearing (true) Bearing (mag) Slope Elevation
22 Localiser ILC 110.30 MHz 18 nm / 33 km 225.17° 220.14° - 8 ft / 2 m (AMSL)
22 Glidescope ILC 110.30 MHz 10 nm / 19 km 225.16° 220.13° 2.75° 24 ft / 7 m (AMSL)
22 DME ILC 110.30 MHz 18 nm / 33 km - - - 20 ft / 6 m (AMSL)

Popular Alternatives